sensor_id;sensor_type;location;lat;lon;timestamp;pressure;altitude;pressure_sealevel;temperature;humidity
23433;BME280;41331;45.412;10.992;2023-04-26T00:00:30;100538.06;;;10.33;100.00
23433;BME280;41331;45.412;10.992;2023-04-26T00:02:57;100551.81;;;10.19;100.00
23433;BME280;41331;45.412;10.992;2023-04-26T00:05:26;100544.78;;;10.18;100.00
23433;BME280;41331;45.412;10.992;2023-04-26T00:07:55;100541.91;;;9.97;100.00
23433;BME280;41331;45.412;10.992;2023-04-26T00:10:22;100544.16;;;9.95;100.00
23433;BME280;41331;45.412;10.992;2023-04-26T00:12:49;100536.66;;;10.09;100.00
23433;BME280;41331;45.412;10.992;2023-04-26T00:15:17;100540.78;;;10.16;100.00
23433;BME280;41331;45.412;10.992;2023-04-26T00:17:44;100537.59;;;10.05;100.00
23433;BME280;41331;45.412;10.992;2023-04-26T00:20:12;100540.50;;;9.82;100.00
23433;BME280;41331;45.412;10.992;2023-04-26T00:22:39;100536.97;;;9.82;100.00
23433;BME280;41331;45.412;10.992;2023-04-26T00:25:06;100541.63;;;9.81;100.00
23433;BME280;41331;45.412;10.992;2023-04-26T00:27:34;100536.31;;;9.94;100.00
23433;BME280;41331;45.412;10.992;2023-04-26T00:30:01;100539.38;;;9.83;100.00
23433;BME280;41331;45.412;10.992;2023-04-26T00:32:29;100537.28;;;9.98;100.00
23433;BME280;41331;45.412;10.992;2023-04-26T00:34:57;100529.31;;;9.84;100.00
23433;BME280;41331;45.412;10.992;2023-04-26T00:37:24;100529.47;;;9.79;100.00
23433;BME280;41331;45.412;10.992;2023-04-26T00:39:52;100534.75;;;9.67;100.00
23433;BME280;41331;45.412;10.992;2023-04-26T00:42:19;100531.38;;;9.52;100.00
23433;BME280;41331;45.412;10.992;2023-04-26T00:44:46;100527.88;;;9.60;100.00
23433;BME280;41331;45.412;10.992;2023-04-26T00:47:13;100533.47;;;9.55;100.00
23433;BME280;41331;45.412;10.992;2023-04-26T00:49:41;100542.56;;;9.51;100.00
23433;BME280;41331;45.412;10.992;2023-04-26T00:52:08;100546.84;;;9.43;100.00
23433;BME280;41331;45.412;10.992;2023-04-26T00:54:35;100545.47;;;9.54;100.00
23433;BME280;41331;45.412;10.992;2023-04-26T00:57:03;100550.09;;;9.54;100.00
23433;BME280;41331;45.412;10.992;2023-04-26T00:59:30;100547.84;;;9.65;100.00
23433;BME280;41331;45.412;10.992;2023-04-26T01:01:57;100552.63;;;9.68;100.00
23433;BME280;41331;45.412;10.992;2023-04-26T01:04:26;100558.41;;;9.66;100.00
23433;BME280;41331;45.412;10.992;2023-04-26T01:06:54;100559.19;;;9.49;100.00
23433;BME280;41331;45.412;10.992;2023-04-26T01:09:22;100566.97;;;9.25;100.00
23433;BME280;41331;45.412;10.992;2023-04-26T01:11:50;100567.94;;;9.29;100.00
23433;BME280;41331;45.412;10.992;2023-04-26T01:14:18;100576.72;;;9.26;100.00
23433;BME280;41331;45.412;10.992;2023-04-26T01:16:45;100569.94;;;9.06;100.00
23433;BME280;41331;45.412;10.992;2023-04-26T01:19:13;100568.03;;;9.06;100.00
23433;BME280;41331;45.412;10.992;2023-04-26T01:21:41;100570.13;;;9.10;100.00
23433;BME280;41331;45.412;10.992;2023-04-26T01:24:09;100568.72;;;9.21;100.00
23433;BME280;41331;45.412;10.992;2023-04-26T01:26:37;100572.22;;;9.21;100.00
23433;BME280;41331;45.412;10.992;2023-04-26T01:29:14;100569.66;;;9.16;100.00
23433;BME280;41331;45.412;10.992;2023-04-26T01:31:42;100572.09;;;9.35;100.00
23433;BME280;41331;45.412;10.992;2023-04-26T01:34:09;100577.97;;;9.20;100.00
23433;BME280;41331;45.412;10.992;2023-04-26T01:36:37;100580.81;;;9.06;100.00
23433;BME280;41331;45.412;10.992;2023-04-26T01:39:04;100580.69;;;9.28;100.00
23433;BME280;41331;45.412;10.992;2023-04-26T01:41:31;100583.09;;;9.21;100.00
23433;BME280;41331;45.412;10.992;2023-04-26T01:43:59;100577.34;;;9.14;100.00
23433;BME280;41331;45.412;10.992;2023-04-26T01:46:27;100585.63;;;9.09;100.00
23433;BME280;41331;45.412;10.992;2023-04-26T01:48:54;100589.28;;;9.04;100.00
23433;BME280;41331;45.412;10.992;2023-04-26T01:51:23;100591.16;;;8.95;100.00
23433;BME280;41331;45.412;10.992;2023-04-26T01:53:50;100602.28;;;8.85;100.00
23433;BME280;41331;45.412;10.992;2023-04-26T01:56:18;100611.41;;;8.89;100.00
23433;BME280;41331;45.412;10.992;2023-04-26T01:58:45;100607.22;;;8.83;100.00
23433;BME280;41331;45.412;10.992;2023-04-26T02:01:12;100608.66;;;8.80;100.00
23433;BME280;41331;45.412;10.992;2023-04-26T02:03:39;100606.94;;;8.62;100.00
23433;BME280;41331;45.412;10.992;2023-04-26T02:06:07;100603.13;;;8.63;100.00
23433;BME280;41331;45.412;10.992;2023-04-26T02:08:34;100603.63;;;8.65;100.00
23433;BME280;41331;45.412;10.992;2023-04-26T02:11:01;100597.41;;;8.73;100.00
23433;BME280;41331;45.412;10.992;2023-04-26T02:13:29;100601.72;;;8.66;100.00
23433;BME280;41331;45.412;10.992;2023-04-26T02:15:57;100603.03;;;8.77;100.00
23433;BME280;41331;45.412;10.992;2023-04-26T02:18:25;100594.94;;;8.54;100.00
23433;BME280;41331;45.412;10.992;2023-04-26T02:20:52;100596.47;;;8.47;100.00
23433;BME280;41331;45.412;10.992;2023-04-26T02:23:20;100591.31;;;8.59;100.00
23433;BME280;41331;45.412;10.992;2023-04-26T02:25:47;100601.50;;;8.93;100.00
23433;BME280;41331;45.412;10.992;2023-04-26T02:28:16;100596.50;;;9.18;100.00
23433;BME280;41331;45.412;10.992;2023-04-26T02:30:43;100597.47;;;9.22;100.00
23433;BME280;41331;45.412;10.992;2023-04-26T02:33:10;100597.91;;;9.06;100.00
23433;BME280;41331;45.412;10.992;2023-04-26T02:35:38;100595.47;;;8.96;100.00
23433;BME280;41331;45.412;10.992;2023-04-26T02:38:05;100591.06;;;9.09;100.00
23433;BME280;41331;45.412;10.992;2023-04-26T02:40:32;100600.22;;;8.91;100.00
23433;BME280;41331;45.412;10.992;2023-04-26T02:43:00;100605.81;;;8.86;100.00
23433;BME280;41331;45.412;10.992;2023-04-26T02:45:27;100599.19;;;8.78;100.00
23433;BME280;41331;45.412;10.992;2023-04-26T02:47:54;100607.84;;;8.49;100.00
23433;BME280;41331;45.412;10.992;2023-04-26T02:50:22;100603.81;;;8.24;100.00
23433;BME280;41331;45.412;10.992;2023-04-26T02:52:50;100594.81;;;8.37;100.00
23433;BME280;41331;45.412;10.992;2023-04-26T02:55:17;100593.91;;;8.42;100.00
23433;BME280;41331;45.412;10.992;2023-04-26T02:57:44;100596.53;;;8.55;100.00
23433;BME280;41331;45.412;10.992;2023-04-26T03:00:12;100610.72;;;8.52;100.00
23433;BME280;41331;45.412;10.992;2023-04-26T03:02:42;100615.06;;;8.53;100.00
23433;BME280;41331;45.412;10.992;2023-04-26T03:05:09;100612.09;;;8.41;100.00
23433;BME280;41331;45.412;10.992;2023-04-26T03:07:37;100612.13;;;8.27;100.00
23433;BME280;41331;45.412;10.992;2023-04-26T03:10:04;100608.84;;;8.17;100.00
23433;BME280;41331;45.412;10.992;2023-04-26T03:12:33;100612.56;;;8.21;100.00
23433;BME280;41331;45.412;10.992;2023-04-26T03:15:01;100618.41;;;8.14;100.00
23433;BME280;41331;45.412;10.992;2023-04-26T03:17:30;100626.59;;;8.00;100.00
23433;BME280;41331;45.412;10.992;2023-04-26T03:19:58;100626.22;;;7.93;100.00
23433;BME280;41331;45.412;10.992;2023-04-26T03:22:28;100625.81;;;7.86;100.00
23433;BME280;41331;45.412;10.992;2023-04-26T03:24:55;100629.03;;;7.88;100.00
23433;BME280;41331;45.412;10.992;2023-04-26T03:27:25;100631.03;;;7.83;100.00
23433;BME280;41331;45.412;10.992;2023-04-26T03:29:53;100638.88;;;7.84;100.00
23433;BME280;41331;45.412;10.992;2023-04-26T03:32:20;100632.25;;;7.76;100.00
23433;BME280;41331;45.412;10.992;2023-04-26T03:34:48;100643.19;;;7.85;100.00
23433;BME280;41331;45.412;10.992;2023-04-26T03:37:15;100640.25;;;7.95;100.00
23433;BME280;41331;45.412;10.992;2023-04-26T03:39:46;100638.09;;;7.84;100.00
23433;BME280;41331;45.412;10.992;2023-04-26T03:42:13;100644.00;;;7.86;100.00
23433;BME280;41331;45.412;10.992;2023-04-26T03:44:40;100640.28;;;7.82;100.00
23433;BME280;41331;45.412;10.992;2023-04-26T03:47:08;100658.97;;;7.83;100.00
23433;BME280;41331;45.412;10.992;2023-04-26T03:49:35;100641.66;;;7.93;100.00
23433;BME280;41331;45.412;10.992;2023-04-26T03:52:02;100649.44;;;8.08;100.00
23433;BME280;41331;45.412;10.992;2023-04-26T03:54:30;100660.34;;;7.94;100.00
23433;BME280;41331;45.412;10.992;2023-04-26T03:56:58;100659.03;;;7.92;100.00
23433;BME280;41331;45.412;10.992;2023-04-26T03:59:25;100670.28;;;7.85;100.00
23433;BME280;41331;45.412;10.992;2023-04-26T04:01:52;100670.75;;;8.01;100.00
23433;BME280;41331;45.412;10.992;2023-04-26T04:04:20;100671.66;;;7.96;100.00
23433;BME280;41331;45.412;10.992;2023-04-26T04:06:48;100669.97;;;8.00;100.00
23433;BME280;41331;45.412;10.992;2023-04-26T04:09:16;100668.72;;;8.07;100.00
23433;BME280;41331;45.412;10.992;2023-04-26T04:11:44;100668.72;;;8.07;100.00
23433;BME280;41331;45.412;10.992;2023-04-26T04:14:13;100674.03;;;8.12;100.00
23433;BME280;41331;45.412;10.992;2023-04-26T04:16:40;100680.56;;;8.11;100.00
23433;BME280;41331;45.412;10.992;2023-04-26T04:19:08;100680.13;;;8.17;100.00
23433;BME280;41331;45.412;10.992;2023-04-26T04:21:35;100689.38;;;8.16;100.00
23433;BME280;41331;45.412;10.992;2023-04-26T04:24:02;100697.75;;;8.06;100.00
23433;BME280;41331;45.412;10.992;2023-04-26T04:26:30;100690.22;;;8.03;100.00
23433;BME280;41331;45.412;10.992;2023-04-26T04:28:58;100693.63;;;8.09;100.00
23433;BME280;41331;45.412;10.992;2023-04-26T04:31:35;100687.34;;;8.22;100.00
23433;BME280;41331;45.412;10.992;2023-04-26T04:34:03;100695.09;;;8.28;100.00
23433;BME280;41331;45.412;10.992;2023-04-26T04:36:30;100698.09;;;8.27;100.00
23433;BME280;41331;45.412;10.992;2023-04-26T04:38:58;100699.28;;;8.35;100.00
23433;BME280;41331;45.412;10.992;2023-04-26T04:41:29;100692.19;;;8.39;100.00
23433;BME280;41331;45.412;10.992;2023-04-26T04:43:56;100693.66;;;8.45;100.00
23433;BME280;41331;45.412;10.992;2023-04-26T04:46:24;100693.22;;;8.51;100.00
23433;BME280;41331;45.412;10.992;2023-04-26T04:48:51;100696.91;;;8.55;100.00
23433;BME280;41331;45.412;10.992;2023-04-26T04:51:20;100702.91;;;8.66;100.00
23433;BME280;41331;45.412;10.992;2023-04-26T04:53:47;100706.91;;;8.69;100.00
23433;BME280;41331;45.412;10.992;2023-04-26T04:56:14;100715.28;;;8.81;100.00
23433;BME280;41331;45.412;10.992;2023-04-26T04:58:44;100716.16;;;8.90;100.00
23433;BME280;41331;45.412;10.992;2023-04-26T05:01:12;100715.97;;;8.87;100.00
23433;BME280;41331;45.412;10.992;2023-04-26T05:03:46;100722.81;;;8.84;100.00
23433;BME280;41331;45.412;10.992;2023-04-26T05:06:13;100726.44;;;9.02;100.00
23433;BME280;41331;45.412;10.992;2023-04-26T05:08:40;100728.66;;;9.00;100.00
23433;BME280;41331;45.412;10.992;2023-04-26T05:11:08;100726.69;;;8.92;100.00
23433;BME280;41331;45.412;10.992;2023-04-26T05:13:36;100723.00;;;8.88;100.00
23433;BME280;41331;45.412;10.992;2023-04-26T05:16:04;100729.16;;;9.02;100.00
23433;BME280;41331;45.412;10.992;2023-04-26T05:18:32;100735.16;;;9.21;100.00
23433;BME280;41331;45.412;10.992;2023-04-26T05:20:59;100732.13;;;9.23;100.00
23433;BME280;41331;45.412;10.992;2023-04-26T05:23:26;100743.63;;;9.20;100.00
23433;BME280;41331;45.412;10.992;2023-04-26T05:25:53;100743.25;;;9.35;100.00
23433;BME280;41331;45.412;10.992;2023-04-26T05:28:39;100744.56;;;9.46;100.00
23433;BME280;41331;45.412;10.992;2023-04-26T05:31:22;100741.88;;;9.55;100.00
23433;BME280;41331;45.412;10.992;2023-04-26T05:34:06;100751.03;;;9.59;100.00
23433;BME280;41331;45.412;10.992;2023-04-26T05:36:36;100752.13;;;9.58;100.00
23433;BME280;41331;45.412;10.992;2023-04-26T05:39:03;100764.63;;;9.68;100.00
23433;BME280;41331;45.412;10.992;2023-04-26T05:41:34;100770.13;;;9.85;99.64
23433;BME280;41331;45.412;10.992;2023-04-26T05:44:02;100768.09;;;9.99;99.31
23433;BME280;41331;45.412;10.992;2023-04-26T05:46:29;100774.00;;;10.01;96.02
23433;BME280;41331;45.412;10.992;2023-04-26T05:48:56;100772.44;;;10.18;97.14
23433;BME280;41331;45.412;10.992;2023-04-26T05:51:24;100768.03;;;10.30;96.88
23433;BME280;41331;45.412;10.992;2023-04-26T05:53:52;100770.75;;;10.39;94.74
23433;BME280;41331;45.412;10.992;2023-04-26T05:56:20;100780.53;;;10.57;93.84
23433;BME280;41331;45.412;10.992;2023-04-26T05:58:47;100767.22;;;10.73;94.27
23433;BME280;41331;45.412;10.992;2023-04-26T06:01:14;100772.53;;;10.70;92.99
23433;BME280;41331;45.412;10.992;2023-04-26T06:03:43;100778.28;;;10.85;92.81
23433;BME280;41331;45.412;10.992;2023-04-26T06:06:10;100775.56;;;10.77;96.22
23433;BME280;41331;45.412;10.992;2023-04-26T06:08:41;100778.28;;;10.85;95.42
23433;BME280;41331;45.412;10.992;2023-04-26T06:11:09;100781.31;;;10.93;94.39
23433;BME280;41331;45.412;10.992;2023-04-26T06:13:37;100787.25;;;10.95;94.30
23433;BME280;41331;45.412;10.992;2023-04-26T06:16:05;100792.84;;;11.15;95.23
23433;BME280;41331;45.412;10.992;2023-04-26T06:18:33;100788.28;;;11.46;91.11
23433;BME280;41331;45.412;10.992;2023-04-26T06:21:00;100793.47;;;11.68;87.30
23433;BME280;41331;45.412;10.992;2023-04-26T06:23:27;100793.19;;;11.99;80.00
23433;BME280;41331;45.412;10.992;2023-04-26T06:25:54;100793.66;;;12.10;82.19
23433;BME280;41331;45.412;10.992;2023-04-26T06:28:22;100796.59;;;12.26;80.63
23433;BME280;41331;45.412;10.992;2023-04-26T06:30:49;100792.94;;;13.05;78.39
23433;BME280;41331;45.412;10.992;2023-04-26T06:33:17;100790.34;;;14.92;73.76
23433;BME280;41331;45.412;10.992;2023-04-26T06:35:44;100779.72;;;17.49;63.68
23433;BME280;41331;45.412;10.992;2023-04-26T06:38:12;100778.53;;;19.54;52.82
23433;BME280;41331;45.412;10.992;2023-04-26T06:40:40;100772.97;;;22.96;42.64
23433;BME280;41331;45.412;10.992;2023-04-26T06:43:08;100779.31;;;22.96;39.98
23433;BME280;41331;45.412;10.992;2023-04-26T06:45:35;100770.81;;;23.81;40.96
23433;BME280;41331;45.412;10.992;2023-04-26T06:48:03;100782.19;;;23.45;38.71
23433;BME280;41331;45.412;10.992;2023-04-26T06:50:32;100789.31;;;20.90;41.11
23433;BME280;41331;45.412;10.992;2023-04-26T06:52:59;100796.25;;;19.49;45.74
23433;BME280;41331;45.412;10.992;2023-04-26T06:55:26;100796.91;;;18.42;50.41
23433;BME280;41331;45.412;10.992;2023-04-26T06:57:53;100798.88;;;17.42;53.03
23433;BME280;41331;45.412;10.992;2023-04-26T07:00:21;100786.75;;;17.24;51.43
23433;BME280;41331;45.412;10.992;2023-04-26T07:02:48;100790.00;;;17.10;56.24
23433;BME280;41331;45.412;10.992;2023-04-26T07:05:16;100798.94;;;16.84;55.79
23433;BME280;41331;45.412;10.992;2023-04-26T07:07:43;100799.69;;;16.65;53.40
23433;BME280;41331;45.412;10.992;2023-04-26T07:10:10;100803.72;;;16.17;53.47
23433;BME280;41331;45.412;10.992;2023-04-26T07:12:37;100803.41;;;16.38;56.32
23433;BME280;41331;45.412;10.992;2023-04-26T07:15:05;100805.13;;;16.11;53.86
23433;BME280;41331;45.412;10.992;2023-04-26T07:17:35;100807.44;;;16.24;55.33
23433;BME280;41331;45.412;10.992;2023-04-26T07:20:02;100803.94;;;16.43;54.35
23433;BME280;41331;45.412;10.992;2023-04-26T07:22:30;100808.84;;;16.18;53.22
23433;BME280;41331;45.412;10.992;2023-04-26T07:24:57;100806.31;;;16.45;54.30
23433;BME280;41331;45.412;10.992;2023-04-26T07:27:24;100807.91;;;16.46;53.96
23433;BME280;41331;45.412;10.992;2023-04-26T07:29:52;100803.47;;;16.22;54.00
23433;BME280;41331;45.412;10.992;2023-04-26T07:32:19;100800.00;;;16.79;55.98
23433;BME280;41331;45.412;10.992;2023-04-26T07:34:47;100805.50;;;16.99;56.42
23433;BME280;41331;45.412;10.992;2023-04-26T07:37:14;100806.72;;;17.01;54.29
23433;BME280;41331;45.412;10.992;2023-04-26T07:39:41;100799.50;;;17.13;55.38
23433;BME280;41331;45.412;10.992;2023-04-26T07:42:09;100802.09;;;16.86;52.63
23433;BME280;41331;45.412;10.992;2023-04-26T07:44:36;100810.28;;;17.02;52.78
23433;BME280;41331;45.412;10.992;2023-04-26T07:47:03;100796.47;;;17.41;54.81
23433;BME280;41331;45.412;10.992;2023-04-26T07:49:30;100799.25;;;17.21;52.33
23433;BME280;41331;45.412;10.992;2023-04-26T07:51:57;100797.53;;;17.32;56.23
23433;BME280;41331;45.412;10.992;2023-04-26T07:54:28;100806.69;;;17.40;55.39
23433;BME280;41331;45.412;10.992;2023-04-26T07:56:55;100798.34;;;17.37;55.42
23433;BME280;41331;45.412;10.992;2023-04-26T07:59:22;100805.94;;;17.66;56.24
23433;BME280;41331;45.412;10.992;2023-04-26T08:01:50;100809.38;;;17.59;56.36
23433;BME280;41331;45.412;10.992;2023-04-26T08:04:28;100809.69;;;18.00;59.16
23433;BME280;41331;45.412;10.992;2023-04-26T08:06:56;100806.78;;;18.16;56.23
23433;BME280;41331;45.412;10.992;2023-04-26T08:09:23;100802.38;;;17.85;52.56
23433;BME280;41331;45.412;10.992;2023-04-26T08:11:50;100802.66;;;18.29;55.57
23433;BME280;41331;45.412;10.992;2023-04-26T08:14:18;100801.75;;;17.95;51.92
23433;BME280;41331;45.412;10.992;2023-04-26T08:16:45;100806.47;;;17.95;51.97
23433;BME280;41331;45.412;10.992;2023-04-26T08:19:12;100805.41;;;18.29;53.76
23433;BME280;41331;45.412;10.992;2023-04-26T08:21:39;100810.03;;;18.48;52.54
23433;BME280;41331;45.412;10.992;2023-04-26T08:24:06;100809.59;;;18.46;52.04
23433;BME280;41331;45.412;10.992;2023-04-26T08:26:34;100806.31;;;18.67;51.75
23433;BME280;41331;45.412;10.992;2023-04-26T08:29:01;100804.06;;;18.73;52.29
23433;BME280;41331;45.412;10.992;2023-04-26T08:31:28;100803.91;;;18.92;50.47
23433;BME280;41331;45.412;10.992;2023-04-26T08:33:55;100804.50;;;19.12;51.16
23433;BME280;41331;45.412;10.992;2023-04-26T08:36:23;100807.19;;;19.38;49.98
23433;BME280;41331;45.412;10.992;2023-04-26T08:38:50;100806.44;;;19.45;48.95
23433;BME280;41331;45.412;10.992;2023-04-26T08:41:18;100801.94;;;19.67;47.53
23433;BME280;41331;45.412;10.992;2023-04-26T08:43:48;100804.47;;;19.46;48.31
23433;BME280;41331;45.412;10.992;2023-04-26T08:46:16;100807.91;;;19.73;51.02
23433;BME280;41331;45.412;10.992;2023-04-26T08:48:48;100806.75;;;19.74;49.09
23433;BME280;41331;45.412;10.992;2023-04-26T08:51:19;100816.63;;;19.75;48.02
23433;BME280;41331;45.412;10.992;2023-04-26T08:53:47;100812.09;;;19.19;47.65
23433;BME280;41331;45.412;10.992;2023-04-26T08:56:21;100814.19;;;18.95;49.42
23433;BME280;41331;45.412;10.992;2023-04-26T08:58:49;100817.53;;;19.11;50.42
23433;BME280;41331;45.412;10.992;2023-04-26T09:01:16;100816.75;;;19.52;51.10
23433;BME280;41331;45.412;10.992;2023-04-26T09:03:44;100819.78;;;19.73;50.76
23433;BME280;41331;45.412;10.992;2023-04-26T09:06:12;100818.25;;;19.79;51.26
23433;BME280;41331;45.412;10.992;2023-04-26T09:08:39;100819.38;;;19.75;49.27
23433;BME280;41331;45.412;10.992;2023-04-26T09:11:07;100817.72;;;20.18;50.60
23433;BME280;41331;45.412;10.992;2023-04-26T09:13:34;100825.28;;;18.99;50.07
23433;BME280;41331;45.412;10.992;2023-04-26T09:16:01;100822.63;;;19.87;49.16
23433;BME280;41331;45.412;10.992;2023-04-26T09:18:31;100826.47;;;19.35;51.81
23433;BME280;41331;45.412;10.992;2023-04-26T09:21:01;100826.75;;;20.11;49.59
23433;BME280;41331;45.412;10.992;2023-04-26T09:23:28;100823.41;;;20.43;49.41
23433;BME280;41331;45.412;10.992;2023-04-26T09:25:55;100821.56;;;20.61;48.31
23433;BME280;41331;45.412;10.992;2023-04-26T09:28:22;100822.72;;;20.53;47.37
23433;BME280;41331;45.412;10.992;2023-04-26T09:30:50;100820.72;;;19.95;47.03
23433;BME280;41331;45.412;10.992;2023-04-26T09:33:17;100828.25;;;20.50;49.93
23433;BME280;41331;45.412;10.992;2023-04-26T09:35:45;100823.31;;;20.25;47.41
23433;BME280;41331;45.412;10.992;2023-04-26T09:38:13;100818.63;;;20.36;46.00
23433;BME280;41331;45.412;10.992;2023-04-26T09:40:45;100822.13;;;20.88;47.42
23433;BME280;41331;45.412;10.992;2023-04-26T09:43:16;100817.78;;;20.94;47.87
23433;BME280;41331;45.412;10.992;2023-04-26T09:48:12;100819.81;;;21.12;49.70
23433;BME280;41331;45.412;10.992;2023-04-26T09:50:40;100817.97;;;20.50;49.42
23433;BME280;41331;45.412;10.992;2023-04-26T09:53:07;100824.91;;;20.26;50.02
23433;BME280;41331;45.412;10.992;2023-04-26T09:55:35;100820.94;;;20.27;49.74
23433;BME280;41331;45.412;10.992;2023-04-26T09:58:10;100812.47;;;20.54;49.22
23433;BME280;41331;45.412;10.992;2023-04-26T10:00:37;100812.88;;;20.59;50.53
23433;BME280;41331;45.412;10.992;2023-04-26T10:03:07;100817.03;;;21.05;49.54
23433;BME280;41331;45.412;10.992;2023-04-26T10:05:35;100811.91;;;21.10;47.72
23433;BME280;41331;45.412;10.992;2023-04-26T10:08:04;100814.22;;;20.94;47.79
23433;BME280;41331;45.412;10.992;2023-04-26T10:10:31;100808.72;;;21.05;46.74
23433;BME280;41331;45.412;10.992;2023-04-26T10:12:59;100805.44;;;20.74;47.79
23433;BME280;41331;45.412;10.992;2023-04-26T10:15:26;100809.91;;;21.07;50.06
23433;BME280;41331;45.412;10.992;2023-04-26T10:17:54;100814.41;;;21.44;49.80
23433;BME280;41331;45.412;10.992;2023-04-26T10:20:21;100801.75;;;21.64;48.46
23433;BME280;41331;45.412;10.992;2023-04-26T10:22:52;100805.69;;;21.49;47.06
23433;BME280;41331;45.412;10.992;2023-04-26T10:25:21;100798.16;;;21.46;49.30
23433;BME280;41331;45.412;10.992;2023-04-26T10:28:00;100806.31;;;20.89;50.59
23433;BME280;41331;45.412;10.992;2023-04-26T10:30:29;100804.00;;;21.16;48.80
23433;BME280;41331;45.412;10.992;2023-04-26T10:35:24;100790.25;;;21.30;51.33
23433;BME280;41331;45.412;10.992;2023-04-26T10:40:32;100792.22;;;21.37;46.84
23433;BME280;41331;45.412;10.992;2023-04-26T10:45:42;100785.81;;;21.22;50.23
23433;BME280;41331;45.412;10.992;2023-04-26T10:48:16;100775.63;;;21.65;49.63
23433;BME280;41331;45.412;10.992;2023-04-26T10:55:59;100777.19;;;21.63;47.04
23433;BME280;41331;45.412;10.992;2023-04-26T11:01:15;100768.88;;;21.73;45.04
23433;BME280;41331;45.412;10.992;2023-04-26T11:03:59;100774.03;;;21.39;48.02
23433;BME280;41331;45.412;10.992;2023-04-26T11:09:32;100767.34;;;21.69;48.44
23433;BME280;41331;45.412;10.992;2023-04-26T11:12:00;100766.91;;;21.63;50.80
23433;BME280;41331;45.412;10.992;2023-04-26T11:14:30;100755.84;;;21.35;46.50
23433;BME280;41331;45.412;10.992;2023-04-26T11:16:57;100758.22;;;21.72;46.85
23433;BME280;41331;45.412;10.992;2023-04-26T11:19:25;100759.00;;;21.40;48.16
23433;BME280;41331;45.412;10.992;2023-04-26T11:21:52;100757.44;;;21.64;48.12
23433;BME280;41331;45.412;10.992;2023-04-26T11:24:25;100755.81;;;21.92;48.67
23433;BME280;41331;45.412;10.992;2023-04-26T11:26:53;100754.66;;;21.71;49.28
23433;BME280;41331;45.412;10.992;2023-04-26T11:29:20;100745.94;;;21.94;48.47
23433;BME280;41331;45.412;10.992;2023-04-26T11:31:51;100743.16;;;21.37;49.01
23433;BME280;41331;45.412;10.992;2023-04-26T11:34:19;100739.22;;;21.81;50.31
23433;BME280;41331;45.412;10.992;2023-04-26T11:36:46;100740.75;;;22.21;51.00
23433;BME280;41331;45.412;10.992;2023-04-26T11:39:14;100740.38;;;22.19;49.32
23433;BME280;41331;45.412;10.992;2023-04-26T11:41:41;100741.44;;;22.54;44.52
23433;BME280;41331;45.412;10.992;2023-04-26T11:44:09;100738.63;;;22.58;45.01
23433;BME280;41331;45.412;10.992;2023-04-26T11:46:37;100737.56;;;22.09;47.50
23433;BME280;41331;45.412;10.992;2023-04-26T11:49:04;100743.84;;;22.41;45.73
23433;BME280;41331;45.412;10.992;2023-04-26T11:51:32;100733.66;;;21.99;44.77
23433;BME280;41331;45.412;10.992;2023-04-26T11:53:59;100733.25;;;22.11;46.72
23433;BME280;41331;45.412;10.992;2023-04-26T11:56:27;100737.19;;;22.17;46.14
23433;BME280;41331;45.412;10.992;2023-04-26T11:58:54;100722.91;;;22.08;46.70
23433;BME280;41331;45.412;10.992;2023-04-26T12:01:23;100729.31;;;21.73;46.80
23433;BME280;41331;45.412;10.992;2023-04-26T12:03:52;100720.19;;;21.97;47.32
23433;BME280;41331;45.412;10.992;2023-04-26T12:06:24;100717.88;;;21.35;44.05
23433;BME280;41331;45.412;10.992;2023-04-26T12:08:52;100721.41;;;21.46;44.74
23433;BME280;41331;45.412;10.992;2023-04-26T12:11:20;100721.81;;;21.84;44.10
23433;BME280;41331;45.412;10.992;2023-04-26T12:13:47;100717.00;;;22.13;46.65
23433;BME280;41331;45.412;10.992;2023-04-26T12:16:14;100717.03;;;21.99;44.24
23433;BME280;41331;45.412;10.992;2023-04-26T12:18:52;100718.66;;;21.61;41.65
23433;BME280;41331;45.412;10.992;2023-04-26T12:21:20;100720.22;;;21.94;43.51
23433;BME280;41331;45.412;10.992;2023-04-26T12:23:47;100720.53;;;22.28;42.64
23433;BME280;41331;45.412;10.992;2023-04-26T12:26:15;100714.81;;;22.67;43.18
23433;BME280;41331;45.412;10.992;2023-04-26T12:28:42;100715.47;;;21.94;44.39
23433;BME280;41331;45.412;10.992;2023-04-26T12:31:09;100706.19;;;22.44;46.40
23433;BME280;41331;45.412;10.992;2023-04-26T12:33:37;100705.59;;;22.92;43.63
23433;BME280;41331;45.412;10.992;2023-04-26T12:36:05;100708.69;;;22.03;46.17
23433;BME280;41331;45.412;10.992;2023-04-26T12:38:32;100717.38;;;22.30;46.53
23433;BME280;41331;45.412;10.992;2023-04-26T12:40:59;100712.19;;;22.28;47.48
23433;BME280;41331;45.412;10.992;2023-04-26T12:43:27;100716.66;;;21.79;44.77
23433;BME280;41331;45.412;10.992;2023-04-26T12:45:54;100713.84;;;21.01;45.90
23433;BME280;41331;45.412;10.992;2023-04-26T12:48:22;100708.38;;;21.58;47.46
23433;BME280;41331;45.412;10.992;2023-04-26T12:50:49;100712.28;;;21.28;44.93
23433;BME280;41331;45.412;10.992;2023-04-26T12:53:17;100708.34;;;21.29;46.47
23433;BME280;41331;45.412;10.992;2023-04-26T12:55:44;100713.91;;;21.61;46.48
23433;BME280;41331;45.412;10.992;2023-04-26T12:58:12;100702.78;;;21.11;48.70
23433;BME280;41331;45.412;10.992;2023-04-26T13:00:39;100707.97;;;21.63;49.58
23433;BME280;41331;45.412;10.992;2023-04-26T13:03:10;100712.72;;;21.34;48.24
23433;BME280;41331;45.412;10.992;2023-04-26T13:05:40;100713.50;;;21.52;46.91